createdAt,value
2023-10-09T00:02:17.121Z,14.00
2023-10-09T00:04:46.512Z,14.00
2023-10-09T00:07:18.341Z,14.00
2023-10-09T00:09:48.873Z,14.00
2023-10-09T00:12:25.014Z,14.00
2023-10-09T00:14:57.013Z,14.00
2023-10-09T00:17:24.704Z,14.00
2023-10-09T00:19:52.775Z,14.00
2023-10-09T00:22:27.596Z,14.00
2023-10-09T00:25:11.568Z,14.00
2023-10-09T00:27:43.670Z,14.00
2023-10-09T00:30:16.702Z,14.00
2023-10-09T00:32:52.336Z,13.90
2023-10-09T00:35:52.313Z,13.90
2023-10-09T00:38:22.188Z,13.90
2023-10-09T00:41:10.904Z,13.90
2023-10-09T00:43:39.700Z,13.90
2023-10-09T00:46:20.796Z,13.90
2023-10-09T00:48:51.126Z,13.90
2023-10-09T00:51:19.626Z,14.00
2023-10-09T00:53:52.765Z,14.00
2023-10-09T00:56:30.002Z,14.00
2023-10-09T00:59:11.160Z,14.10
2023-10-09T01:01:42.255Z,14.10
2023-10-09T01:04:13.238Z,14.10
2023-10-09T01:06:46.556Z,14.10
2023-10-09T01:09:15.534Z,14.10
2023-10-09T01:12:01.500Z,14.10
2023-10-09T01:14:28.960Z,14.10
2023-10-09T01:16:55.995Z,14.10
2023-10-09T01:19:26.037Z,14.10
2023-10-09T01:21:53.458Z,14.10
2023-10-09T01:24:21.231Z,14.10
2023-10-09T01:26:50.253Z,14.20
2023-10-09T01:29:20.466Z,14.20
2023-10-09T01:32:04.938Z,14.20
2023-10-09T01:34:43.057Z,14.20
2023-10-09T01:37:23.979Z,14.20
2023-10-09T01:39:59.355Z,14.20
2023-10-09T01:42:35.783Z,14.10
2023-10-09T01:45:19.425Z,14.00
2023-10-09T01:47:53.075Z,13.90
2023-10-09T01:50:23.351Z,13.80
2023-10-09T01:52:52.387Z,13.80
2023-10-09T01:55:37.639Z,13.80
2023-10-09T01:58:19.032Z,13.70
2023-10-09T02:00:51.719Z,13.60
2023-10-09T02:03:19.525Z,13.50
2023-10-09T02:05:46.771Z,13.60
2023-10-09T02:08:14.271Z,13.60
2023-10-09T02:10:41.445Z,13.70
2023-10-09T02:13:10.348Z,13.70
2023-10-09T02:15:44.228Z,13.80
2023-10-09T02:18:27.842Z,13.80
2023-10-09T02:21:07.293Z,13.90
2023-10-09T02:23:42.027Z,13.90
2023-10-09T02:26:10.635Z,13.90
2023-10-09T02:28:38.217Z,13.90
2023-10-09T02:31:13.524Z,13.80
2023-10-09T02:33:40.953Z,13.90
2023-10-09T02:36:08.337Z,13.80
2023-10-09T02:38:38.962Z,13.80
2023-10-09T02:41:05.969Z,13.80
2023-10-09T02:43:45.636Z,13.80
2023-10-09T02:46:21.730Z,13.80
2023-10-09T02:48:53.765Z,13.80
2023-10-09T02:51:27.771Z,13.80
2023-10-09T02:54:00.639Z,13.80
2023-10-09T02:56:38.160Z,13.70
2023-10-09T02:59:08.122Z,13.70
2023-10-09T03:01:38.375Z,13.70
2023-10-09T03:04:12.086Z,13.70
2023-10-09T03:06:51.095Z,13.70
2023-10-09T03:09:19.818Z,13.70
2023-10-09T03:11:54.472Z,13.70
2023-10-09T03:14:22.701Z,13.60
2023-10-09T03:16:50.141Z,13.70
2023-10-09T03:19:17.866Z,13.70
2023-10-09T03:21:45.262Z,13.70
2023-10-09T03:24:12.801Z,13.80
2023-10-09T03:26:40.296Z,13.80
2023-10-09T03:29:07.972Z,13.80
2023-10-09T03:31:35.237Z,13.90
2023-10-09T03:34:03.742Z,13.90
2023-10-09T03:36:32.127Z,13.90
2023-10-09T03:38:59.438Z,13.90
2023-10-09T03:41:30.309Z,13.90
2023-10-09T03:43:57.390Z,14.00
2023-10-09T03:46:33.751Z,14.00
2023-10-09T03:49:11.904Z,14.00
2023-10-09T03:51:40.780Z,14.00
2023-10-09T03:54:09.150Z,14.10
2023-10-09T03:56:36.801Z,14.10
2023-10-09T03:59:06.000Z,14.10
2023-10-09T04:01:39.433Z,14.20
2023-10-09T04:04:14.746Z,14.20
2023-10-09T04:06:42.166Z,14.20
2023-10-09T04:09:20.521Z,14.20
2023-10-09T04:12:18.618Z,14.30
2023-10-09T04:15:05.884Z,14.30
2023-10-09T04:17:36.348Z,14.30
2023-10-09T04:20:21.280Z,14.30
2023-10-09T04:23:07.031Z,14.30
2023-10-09T04:25:43.881Z,14.30
2023-10-09T04:28:17.830Z,14.30
2023-10-09T04:30:45.086Z,14.30
2023-10-09T04:33:29.049Z,14.30
2023-10-09T04:36:17.564Z,14.30
2023-10-09T04:39:02.719Z,14.30
2023-10-09T04:41:33.683Z,14.40
2023-10-09T04:44:21.073Z,14.30
2023-10-09T04:47:12.935Z,14.30
2023-10-09T04:50:02.958Z,14.30
2023-10-09T04:52:30.220Z,14.30
2023-10-09T04:55:10.792Z,14.40
2023-10-09T04:57:42.829Z,14.40
2023-10-09T05:00:31.652Z,14.40
2023-10-09T05:03:08.884Z,14.30
2023-10-09T05:05:49.887Z,14.30
2023-10-09T05:08:45.007Z,14.30
2023-10-09T05:11:35.830Z,14.30
2023-10-09T05:14:12.789Z,14.30
2023-10-09T05:16:56.010Z,14.30
2023-10-09T05:19:34.754Z,14.30
2023-10-09T05:22:08.788Z,14.30
2023-10-09T05:24:45.502Z,14.20
2023-10-09T05:27:41.164Z,14.30
2023-10-09T05:30:27.587Z,14.30
2023-10-09T05:32:59.910Z,14.30
2023-10-09T05:36:00.613Z,14.30
2023-10-09T05:38:27.888Z,14.30
2023-10-09T05:40:55.170Z,14.30
2023-10-09T05:43:42.045Z,14.20
2023-10-09T05:46:10.401Z,14.30
2023-10-09T05:48:40.684Z,14.30
2023-10-09T05:51:10.898Z,14.30
2023-10-09T05:53:47.275Z,14.30
2023-10-09T05:56:33.023Z,14.30
2023-10-09T05:59:19.029Z,14.30
2023-10-09T06:01:52.175Z,14.30
2023-10-09T06:04:21.110Z,14.30
2023-10-09T06:06:57.865Z,14.30
2023-10-09T06:09:45.295Z,14.40
2023-10-09T06:12:31.175Z,14.40
2023-10-09T06:15:17.392Z,14.40
2023-10-09T06:17:45.131Z,14.40
2023-10-09T06:20:30.978Z,14.40
2023-10-09T06:22:58.000Z,14.40
2023-10-09T06:25:33.899Z,14.40
2023-10-09T06:28:02.281Z,14.40
2023-10-09T06:30:30.004Z,14.40
2023-10-09T06:33:05.891Z,14.40
2023-10-09T06:35:37.292Z,14.50
2023-10-09T06:38:04.798Z,14.50
2023-10-09T06:40:59.257Z,14.50
2023-10-09T06:43:26.391Z,14.50
2023-10-09T06:46:16.865Z,14.50
2023-10-09T06:48:57.060Z,14.60
2023-10-09T06:51:27.685Z,14.60
2023-10-09T06:54:05.584Z,14.60
2023-10-09T06:56:32.985Z,14.70
2023-10-09T06:59:09.468Z,14.70
2023-10-09T07:01:47.165Z,14.70
2023-10-09T07:04:41.344Z,14.80
2023-10-09T07:07:11.085Z,14.80
2023-10-09T07:09:44.852Z,14.80
2023-10-09T07:12:21.887Z,14.80
2023-10-09T07:14:51.997Z,14.80
2023-10-09T07:17:45.566Z,14.90
2023-10-09T07:20:32.235Z,14.90
2023-10-09T07:23:14.775Z,14.90
2023-10-09T07:26:00.449Z,14.90
2023-10-09T07:28:30.995Z,14.90
2023-10-09T07:31:00.889Z,15.00
2023-10-09T07:33:46.346Z,15.00
2023-10-09T07:36:14.984Z,15.00
2023-10-09T07:38:45.673Z,15.00
2023-10-09T07:41:12.711Z,15.00
2023-10-09T07:43:40.943Z,15.00
2023-10-09T07:46:28.486Z,15.00
2023-10-09T07:48:57.912Z,15.00
2023-10-09T07:51:32.431Z,15.10
2023-10-09T07:54:10.255Z,15.10
2023-10-09T07:56:42.546Z,15.10
2023-10-09T07:59:13.034Z,15.10
2023-10-09T08:02:03.404Z,15.10
2023-10-09T08:04:49.319Z,15.20
2023-10-09T08:08:02.328Z,15.20
2023-10-09T08:10:18.534Z,15.20
2023-10-09T08:12:52.320Z,15.30
2023-10-09T08:15:19.944Z,15.30
2023-10-09T08:18:04.879Z,15.40
2023-10-09T08:20:51.626Z,15.30
2023-10-09T08:23:34.435Z,15.40
2023-10-09T08:26:15.476Z,15.40
2023-10-09T08:28:44.436Z,15.50
2023-10-09T08:31:35.029Z,15.50
2023-10-09T08:36:38.688Z,15.60
2023-10-09T08:39:26.210Z,15.60
2023-10-09T08:41:59.844Z,15.60
2023-10-09T08:44:34.886Z,15.60
2023-10-09T08:47:02.330Z,15.60
2023-10-09T08:49:29.765Z,15.60
2023-10-09T08:51:57.864Z,15.60
2023-10-09T08:54:24.813Z,15.70
2023-10-09T08:56:52.032Z,15.60
2023-10-09T08:59:20.685Z,15.60
2023-10-09T09:01:59.565Z,15.60
2023-10-09T09:04:43.104Z,15.60
2023-10-09T09:07:32.415Z,15.60
2023-10-09T09:10:18.581Z,15.70
2023-10-09T09:13:01.812Z,15.70
2023-10-09T09:15:30.141Z,15.70
2023-10-09T09:18:11.917Z,15.70
2023-10-09T09:20:41.661Z,15.70
2023-10-09T09:23:13.585Z,15.70
2023-10-09T09:25:49.248Z,15.70
2023-10-09T09:28:23.065Z,15.70
2023-10-09T09:30:53.340Z,15.80
2023-10-09T09:33:39.833Z,15.80
2023-10-09T09:36:08.253Z,15.80
2023-10-09T09:38:56.943Z,15.80
2023-10-09T09:41:26.306Z,15.90
2023-10-09T09:44:02.089Z,15.80
2023-10-09T09:46:40.798Z,15.90
2023-10-09T09:49:17.725Z,15.90
2023-10-09T09:51:47.673Z,15.90
2023-10-09T09:54:17.867Z,16.00
2023-10-09T09:56:53.046Z,16.00
2023-10-09T09:59:23.250Z,16.00
2023-10-09T10:02:07.524Z,16.00
2023-10-09T10:04:39.428Z,16.00
2023-10-09T10:07:13.537Z,16.00
2023-10-09T10:09:42.753Z,16.10
2023-10-09T10:12:15.243Z,16.10
2023-10-09T10:15:00.372Z,16.10
2023-10-09T10:17:30.557Z,16.10
2023-10-09T10:20:35.482Z,16.10
2023-10-09T10:23:21.798Z,16.10
2023-10-09T10:25:51.812Z,16.10
2023-10-09T10:28:41.826Z,16.10
2023-10-09T10:31:10.045Z,16.10
2023-10-09T10:33:56.125Z,16.10
2023-10-09T10:36:26.390Z,16.10
2023-10-09T10:39:20.752Z,16.00
2023-10-09T10:41:55.746Z,16.00
2023-10-09T10:44:38.087Z,16.00
2023-10-09T10:47:25.279Z,16.00
2023-10-09T10:49:59.542Z,16.00
2023-10-09T10:52:36.965Z,16.00
2023-10-09T10:55:20.038Z,16.10
2023-10-09T10:58:03.226Z,16.10
2023-10-09T11:00:50.448Z,16.10
2023-10-09T11:03:37.116Z,16.00
2023-10-09T11:06:15.039Z,16.10
2023-10-09T11:08:55.432Z,16.10
2023-10-09T11:11:24.184Z,16.10
2023-10-09T11:13:58.975Z,16.20
2023-10-09T11:16:36.027Z,16.20
2023-10-09T11:19:15.320Z,16.20
2023-10-09T11:21:43.111Z,16.20
2023-10-09T11:24:25.779Z,16.20
2023-10-09T11:26:56.875Z,16.20
2023-10-09T11:29:25.078Z,16.20
2023-10-09T11:32:03.343Z,16.20
2023-10-09T11:34:30.747Z,16.20
2023-10-09T11:37:31.011Z,16.20
2023-10-09T11:40:01.936Z,16.20
2023-10-09T11:42:48.789Z,16.30
2023-10-09T11:45:30.693Z,16.30
2023-10-09T11:47:59.513Z,16.30
2023-10-09T11:50:50.102Z,16.40
2023-10-09T11:53:22.800Z,16.40
2023-10-09T11:55:53.306Z,16.40
2023-10-09T11:58:24.462Z,16.40
2023-10-09T12:01:04.760Z,16.40
2023-10-09T12:03:33.755Z,16.50
2023-10-09T12:06:06.687Z,16.50
2023-10-09T12:08:34.765Z,16.50
2023-10-09T12:11:09.666Z,16.50
2023-10-09T12:13:43.387Z,16.50
2023-10-09T12:16:16.347Z,16.50
2023-10-09T12:18:43.855Z,16.50
2023-10-09T12:21:16.792Z,16.50
2023-10-09T12:23:48.248Z,16.60
2023-10-09T12:26:18.270Z,16.60
2023-10-09T12:28:47.536Z,16.60
2023-10-09T12:31:21.320Z,16.60
2023-10-09T12:33:50.635Z,16.60
2023-10-09T12:36:23.791Z,16.70
2023-10-09T12:38:55.666Z,16.70
2023-10-09T12:41:34.733Z,16.80
2023-10-09T12:44:03.006Z,16.80
2023-10-09T12:46:33.998Z,16.80
2023-10-09T12:49:02.354Z,16.90
2023-10-09T12:51:32.350Z,16.90
2023-10-09T12:53:59.760Z,17.00
2023-10-09T12:56:39.644Z,17.00
2023-10-09T12:59:08.321Z,17.00
2023-10-09T13:01:45.167Z,17.00
2023-10-09T13:04:16.504Z,17.10
2023-10-09T13:06:45.598Z,17.00
2023-10-09T13:09:47.953Z,17.00
2023-10-09T13:12:19.624Z,17.10
2023-10-09T13:14:50.672Z,17.00
2023-10-09T13:17:17.706Z,17.10
2023-10-09T13:19:45.306Z,17.10
2023-10-09T13:22:14.708Z,17.10
2023-10-09T13:24:42.854Z,17.10
2023-10-09T13:27:10.943Z,17.20
2023-10-09T13:29:42.368Z,17.10
2023-10-09T13:32:15.876Z,17.20
2023-10-09T13:34:46.338Z,17.20
2023-10-09T13:37:14.598Z,17.20
2023-10-09T13:39:53.477Z,17.20
2023-10-09T13:42:25.886Z,17.20
2023-10-09T13:44:56.263Z,17.30
2023-10-09T13:47:28.569Z,17.30
2023-10-09T13:49:57.610Z,17.30
2023-10-09T13:52:28.046Z,17.40
2023-10-09T13:54:56.186Z,17.40
2023-10-09T13:57:32.052Z,17.50
2023-10-09T14:00:01.357Z,17.40
2023-10-09T14:02:30.081Z,17.50
2023-10-09T14:04:58.670Z,17.50
2023-10-09T14:07:26.493Z,17.50
2023-10-09T14:10:09.035Z,17.60
2023-10-09T14:12:40.897Z,17.60
2023-10-09T14:15:12.133Z,17.60
2023-10-09T14:17:43.548Z,17.60
2023-10-09T14:20:31.382Z,17.60
2023-10-09T14:23:07.431Z,17.60
2023-10-09T14:25:38.543Z,17.70
2023-10-09T14:28:10.364Z,17.70
2023-10-09T14:30:44.172Z,17.70
2023-10-09T14:33:15.179Z,17.70
2023-10-09T14:35:43.482Z,17.70
2023-10-09T14:38:13.472Z,17.70
2023-10-09T14:40:49.129Z,17.70
2023-10-09T14:43:23.574Z,17.70
2023-10-09T14:45:50.996Z,17.60
2023-10-09T14:48:27.028Z,17.70
2023-10-09T14:50:54.823Z,17.70
2023-10-09T14:53:27.872Z,17.70
2023-10-09T14:55:58.341Z,17.60
2023-10-09T14:58:26.460Z,17.70
2023-10-09T15:00:54.044Z,17.60
2023-10-09T15:03:22.755Z,17.60
2023-10-09T15:05:50.544Z,17.70
2023-10-09T15:08:18.863Z,17.60
2023-10-09T15:10:57.467Z,17.60
2023-10-09T15:13:29.106Z,17.60
2023-10-09T15:15:56.840Z,17.60
2023-10-09T15:18:24.126Z,17.60
2023-10-09T15:20:52.742Z,17.60
2023-10-09T15:23:20.997Z,17.60
2023-10-09T15:25:50.963Z,17.50
2023-10-09T15:28:18.443Z,17.50
2023-10-09T15:30:48.566Z,17.50
2023-10-09T15:33:17.702Z,17.50
2023-10-09T15:35:48.902Z,17.50
2023-10-09T15:38:16.883Z,17.40
2023-10-09T15:40:45.169Z,17.50
2023-10-09T15:43:14.578Z,17.50
2023-10-09T15:45:51.603Z,17.40
2023-10-09T15:48:22.877Z,17.40
2023-10-09T15:50:51.998Z,17.40
2023-10-09T15:53:20.248Z,17.40
2023-10-09T15:55:47.720Z,17.40
2023-10-09T15:58:16.142Z,17.30
2023-10-09T16:00:45.415Z,17.30
2023-10-09T16:03:15.120Z,17.20
2023-10-09T16:05:42.609Z,17.20
2023-10-09T16:08:10.592Z,17.20
2023-10-09T16:10:37.846Z,17.20
2023-10-09T16:13:05.473Z,17.20
2023-10-09T16:15:33.687Z,17.20
2023-10-09T16:18:04.517Z,17.20
2023-10-09T16:20:32.870Z,17.20
2023-10-09T16:23:03.572Z,17.20
2023-10-09T16:25:31.785Z,17.10
2023-10-09T16:27:59.945Z,17.10
2023-10-09T16:30:29.081Z,17.20
2023-10-09T16:32:57.214Z,17.10
2023-10-09T16:35:24.316Z,17.10
2023-10-09T16:37:54.016Z,17.10
2023-10-09T16:40:24.061Z,17.10
2023-10-09T16:42:51.050Z,17.10
2023-10-09T16:45:18.790Z,17.10
2023-10-09T16:47:52.322Z,17.20
2023-10-09T16:50:20.652Z,17.10
2023-10-09T16:52:48.128Z,17.10
2023-10-09T16:55:16.261Z,17.10
2023-10-09T16:57:44.645Z,17.10
2023-10-09T17:00:29.486Z,17.00
2023-10-09T17:02:58.325Z,17.00
2023-10-09T17:05:29.716Z,17.10
2023-10-09T17:07:57.173Z,17.00
2023-10-09T17:10:32.728Z,17.10
2023-10-09T17:12:59.921Z,17.10
2023-10-09T17:15:33.935Z,17.10
2023-10-09T17:18:01.428Z,17.10
2023-10-09T17:20:29.093Z,17.10
2023-10-09T17:23:01.932Z,17.10
2023-10-09T17:25:33.317Z,17.10
2023-10-09T17:28:01.058Z,17.10
2023-10-09T17:30:28.364Z,17.10
2023-10-09T17:33:01.514Z,17.10
2023-10-09T17:35:29.158Z,17.10
2023-10-09T17:37:57.699Z,17.10
2023-10-09T17:40:28.944Z,17.10
2023-10-09T17:42:57.022Z,17.10
2023-10-09T17:45:24.423Z,17.00
2023-10-09T17:47:54.135Z,17.00
2023-10-09T17:50:22.872Z,17.00
2023-10-09T17:52:50.297Z,17.00
2023-10-09T17:55:19.072Z,17.00
2023-10-09T17:57:46.178Z,16.90
2023-10-09T18:00:23.396Z,16.90
2023-10-09T18:02:53.051Z,16.90
2023-10-09T18:05:20.766Z,16.90
2023-10-09T18:07:50.398Z,16.90
2023-10-09T18:10:17.653Z,16.80
2023-10-09T18:12:44.700Z,16.80
2023-10-09T18:15:14.435Z,16.80
2023-10-09T18:17:41.695Z,16.80
2023-10-09T18:20:09.874Z,16.80
2023-10-09T18:22:37.144Z,16.80
2023-10-09T18:25:05.071Z,16.80
2023-10-09T18:27:32.014Z,16.80
2023-10-09T18:29:59.233Z,16.70
2023-10-09T18:32:26.478Z,16.70
2023-10-09T18:34:54.894Z,16.70
2023-10-09T18:37:22.715Z,16.70
2023-10-09T18:39:54.666Z,16.70
2023-10-09T18:42:22.121Z,16.60
2023-10-09T18:44:49.105Z,16.60
2023-10-09T18:47:20.210Z,16.60
2023-10-09T18:49:51.190Z,16.60
2023-10-09T18:52:18.745Z,16.60
2023-10-09T18:54:46.432Z,16.60
2023-10-09T18:57:13.895Z,16.60
2023-10-09T18:59:43.626Z,16.60
2023-10-09T19:02:12.760Z,16.60
2023-10-09T19:04:40.067Z,16.70
2023-10-09T19:07:07.158Z,16.70
2023-10-09T19:09:34.434Z,16.80
2023-10-09T19:12:01.724Z,16.80
2023-10-09T19:14:30.101Z,16.70
2023-10-09T19:17:01.191Z,16.70
2023-10-09T19:19:28.699Z,16.60
2023-10-09T19:21:55.962Z,16.60
2023-10-09T19:24:23.021Z,16.60
2023-10-09T19:26:50.017Z,16.60
2023-10-09T19:29:17.165Z,16.60
2023-10-09T19:31:45.303Z,16.60
2023-10-09T19:34:15.084Z,16.60
2023-10-09T19:36:47.354Z,16.60
2023-10-09T19:39:17.879Z,16.70
2023-10-09T19:41:45.008Z,16.60
2023-10-09T19:44:12.739Z,16.50
2023-10-09T19:46:39.936Z,16.50
2023-10-09T19:49:07.156Z,16.50
2023-10-09T19:51:34.861Z,16.50
2023-10-09T19:54:02.054Z,16.50
2023-10-09T19:56:29.153Z,16.50
2023-10-09T19:58:58.771Z,16.50
2023-10-09T20:01:27.124Z,16.50
2023-10-09T20:03:54.266Z,16.50
2023-10-09T20:06:21.478Z,16.50
2023-10-09T20:08:49.066Z,16.40
2023-10-09T20:11:16.265Z,16.40
2023-10-09T20:13:44.496Z,16.40
2023-10-09T20:16:12.371Z,16.40
2023-10-09T20:18:44.267Z,16.30
2023-10-09T20:21:12.285Z,16.30
2023-10-09T20:23:42.838Z,16.30
2023-10-09T20:26:16.510Z,16.20
2023-10-09T20:28:46.755Z,16.20
2023-10-09T20:31:14.369Z,16.20
2023-10-09T20:33:43.644Z,16.10
2023-10-09T20:36:20.188Z,16.20
2023-10-09T20:38:50.934Z,16.20
2023-10-09T20:41:18.416Z,16.10
2023-10-09T20:43:45.762Z,16.20
2023-10-09T20:46:13.461Z,16.10
2023-10-09T20:48:45.388Z,16.10
2023-10-09T20:51:14.116Z,16.10
2023-10-09T20:53:41.166Z,16.00
2023-10-09T20:56:09.635Z,16.10
2023-10-09T20:58:36.792Z,16.10
2023-10-09T21:01:15.517Z,16.00
2023-10-09T21:03:50.954Z,16.10
2023-10-09T21:06:22.486Z,16.10
2023-10-09T21:08:50.454Z,16.00
2023-10-09T21:11:18.724Z,16.00
2023-10-09T21:13:48.769Z,16.00
2023-10-09T21:16:17.609Z,16.00
2023-10-09T21:18:46.451Z,16.00
2023-10-09T21:21:16.629Z,16.00
2023-10-09T21:23:47.796Z,16.00
2023-10-09T21:26:20.605Z,16.00
2023-10-09T21:28:52.990Z,16.00
2023-10-09T21:31:23.593Z,16.00
2023-10-09T21:33:51.712Z,16.00
2023-10-09T21:36:19.841Z,16.00
2023-10-09T21:38:47.053Z,16.10
2023-10-09T21:41:18.203Z,16.10
2023-10-09T21:43:46.835Z,16.10
2023-10-09T21:46:14.757Z,16.10
2023-10-09T21:48:44.983Z,16.10
2023-10-09T21:51:12.606Z,16.10
2023-10-09T21:53:40.679Z,16.10
2023-10-09T21:56:11.036Z,16.00
2023-10-09T21:58:38.314Z,16.00
2023-10-09T22:01:09.044Z,16.00
2023-10-09T22:03:41.444Z,16.00
2023-10-09T22:06:11.178Z,16.00
2023-10-09T22:08:38.601Z,16.00
2023-10-09T22:11:08.250Z,16.00
2023-10-09T22:13:35.580Z,16.00
2023-10-09T22:16:02.682Z,15.90
2023-10-09T22:18:31.164Z,15.90
2023-10-09T22:20:58.582Z,15.90
2023-10-09T22:23:36.705Z,15.90
2023-10-09T22:26:04.917Z,15.90
2023-10-09T22:28:35.279Z,15.90
2023-10-09T22:31:05.274Z,15.90
2023-10-09T22:33:46.714Z,15.90
2023-10-09T22:36:15.439Z,15.90
2023-10-09T22:38:43.145Z,15.90
2023-10-09T22:41:10.330Z,15.90
2023-10-09T22:43:40.516Z,15.90
2023-10-09T22:46:08.803Z,15.90
2023-10-09T22:48:42.885Z,15.90
2023-10-09T22:51:11.516Z,15.90
2023-10-09T22:53:40.122Z,15.90
2023-10-09T22:56:17.429Z,15.90
2023-10-09T22:58:53.779Z,15.90
2023-10-09T23:01:24.569Z,15.90
2023-10-09T23:04:10.847Z,15.90
2023-10-09T23:06:47.774Z,15.90
2023-10-09T23:09:31.963Z,15.90
2023-10-09T23:12:00.747Z,15.90
2023-10-09T23:14:32.266Z,15.90
2023-10-09T23:17:08.830Z,15.90
2023-10-09T23:19:46.065Z,15.90
2023-10-09T23:22:37.106Z,15.90
2023-10-09T23:25:18.870Z,15.90
2023-10-09T23:27:45.916Z,15.90
2023-10-09T23:30:25.189Z,15.90
2023-10-09T23:33:12.683Z,15.90
2023-10-09T23:35:48.344Z,15.90
2023-10-09T23:38:19.887Z,15.90
2023-10-09T23:40:50.348Z,15.90
2023-10-09T23:43:17.915Z,15.80
2023-10-09T23:45:46.119Z,15.90
2023-10-09T23:48:24.787Z,15.80
2023-10-09T23:51:02.052Z,15.90
2023-10-09T23:53:35.082Z,15.90
2023-10-09T23:56:10.509Z,15.80
2023-10-09T23:58:42.222Z,15.80
